sensor_id;sensor_type;location;lat;lon;timestamp;P1;durP1;ratioP1;P2;durP2;ratioP2
44899;SDS011;30628;51.188;6.770;2022-08-19T05:23:24;15.25;;;14.00;;
44899;SDS011;30628;51.188;6.770;2022-08-19T05:25:51;21.83;;;19.88;;
44899;SDS011;30628;51.188;6.770;2022-08-19T05:28:18;12.70;;;11.70;;
44899;SDS011;30628;51.188;6.770;2022-08-19T05:30:45;16.15;;;14.75;;
44899;SDS011;30628;51.188;6.770;2022-08-19T05:33:11;13.60;;;12.50;;
44899;SDS011;30628;51.188;6.770;2022-08-19T05:35:38;17.65;;;16.13;;
44899;SDS011;30628;51.188;6.770;2022-08-19T05:38:05;13.60;;;12.55;;
44899;SDS011;30628;51.188;6.770;2022-08-19T05:40:39;16.13;;;14.82;;
44899;SDS011;30628;51.188;6.770;2022-08-19T05:43:06;19.77;;;18.05;;
44899;SDS011;30628;51.188;6.770;2022-08-19T05:45:37;24.25;;;22.13;;
44899;SDS011;30628;51.188;6.770;2022-08-19T17:23:37;3.63;;;3.33;;
44899;SDS011;30628;51.188;6.770;2022-08-19T17:26:03;3.97;;;3.30;;
44899;SDS011;30628;51.188;6.770;2022-08-19T17:28:30;3.90;;;3.60;;
44899;SDS011;30628;51.188;6.770;2022-08-19T17:30:56;4.32;;;3.70;;
44899;SDS011;30628;51.188;6.770;2022-08-19T17:33:23;4.47;;;4.00;;
44899;SDS011;30628;51.188;6.770;2022-08-19T17:35:49;4.28;;;3.97;;
44899;SDS011;30628;51.188;6.770;2022-08-19T17:38:16;41.88;;;38.10;;
44899;SDS011;30628;51.188;6.770;2022-08-19T17:40:45;30.05;;;27.27;;
44899;SDS011;30628;51.188;6.770;2022-08-19T17:43:12;23.77;;;21.63;;
44899;SDS011;30628;51.188;6.770;2022-08-19T17:45:39;6.78;;;6.28;;
44899;SDS011;30628;51.188;6.770;2022-08-19T17:48:08;5.50;;;4.95;;
44899;SDS011;30628;51.188;6.770;2022-08-19T17:50:36;5.32;;;4.82;;
44899;SDS011;30628;51.188;6.770;2022-08-19T17:53:03;4.97;;;4.47;;
44899;SDS011;30628;51.188;6.770;2022-08-19T17:55:31;4.82;;;4.43;;
44899;SDS011;30628;51.188;6.770;2022-08-19T17:57:59;4.70;;;4.32;;
44899;SDS011;30628;51.188;6.770;2022-08-19T18:00:25;4.57;;;4.18;;
44899;SDS011;30628;51.188;6.770;2022-08-19T18:02:53;4.57;;;4.28;;
44899;SDS011;30628;51.188;6.770;2022-08-19T18:05:22;4.40;;;4.00;;
44899;SDS011;30628;51.188;6.770;2022-08-19T18:07:54;4.60;;;3.60;;
44899;SDS011;30628;51.188;6.770;2022-08-19T18:10:22;4.90;;;3.45;;
44899;SDS011;30628;51.188;6.770;2022-08-19T18:12:50;4.55;;;4.15;;
44899;SDS011;30628;51.188;6.770;2022-08-19T18:15:18;3.80;;;3.50;;
44899;SDS011;30628;51.188;6.770;2022-08-19T18:17:45;3.80;;;3.50;;
44899;SDS011;30628;51.188;6.770;2022-08-19T18:20:13;4.22;;;3.83;;
44899;SDS011;30628;51.188;6.770;2022-08-19T18:22:42;4.07;;;3.78;;
44899;SDS011;30628;51.188;6.770;2022-08-19T18:25:16;4.03;;;3.60;;
44899;SDS011;30628;51.188;6.770;2022-08-19T18:27:49;3.90;;;3.50;;
44899;SDS011;30628;51.188;6.770;2022-08-19T18:30:19;4.83;;;4.43;;
44899;SDS011;30628;51.188;6.770;2022-08-19T18:32:47;3.72;;;3.47;;
44899;SDS011;30628;51.188;6.770;2022-08-19T18:35:24;4.28;;;3.88;;
44899;SDS011;30628;51.188;6.770;2022-08-19T18:37:55;4.55;;;4.20;;
44899;SDS011;30628;51.188;6.770;2022-08-19T18:40:23;4.57;;;4.00;;
44899;SDS011;30628;51.188;6.770;2022-08-19T18:43:08;3.60;;;3.30;;
44899;SDS011;30628;51.188;6.770;2022-08-19T18:45:41;3.95;;;3.60;;
44899;SDS011;30628;51.188;6.770;2022-08-19T18:48:26;4.20;;;3.80;;
44899;SDS011;30628;51.188;6.770;2022-08-19T18:51:11;4.40;;;3.97;;
44899;SDS011;30628;51.188;6.770;2022-08-19T18:53:39;4.20;;;3.90;;
44899;SDS011;30628;51.188;6.770;2022-08-19T18:56:07;4.30;;;3.60;;
44899;SDS011;30628;51.188;6.770;2022-08-19T18:58:36;3.92;;;3.63;;
44899;SDS011;30628;51.188;6.770;2022-08-19T19:01:10;4.15;;;3.75;;
44899;SDS011;30628;51.188;6.770;2022-08-19T19:03:40;3.55;;;3.25;;
44899;SDS011;30628;51.188;6.770;2022-08-19T19:06:16;3.92;;;3.53;;
44899;SDS011;30628;51.188;6.770;2022-08-19T19:08:46;4.65;;;3.83;;
44899;SDS011;30628;51.188;6.770;2022-08-19T19:11:25;3.95;;;3.40;;
44899;SDS011;30628;51.188;6.770;2022-08-19T19:13:56;3.30;;;3.10;;
44899;SDS011;30628;51.188;6.770;2022-08-19T19:16:22;4.13;;;3.75;;
